Time;durP1;ratioP1;P1;durP2;ratioP2;P2;SDS_P1;SDS_P2;PMS_P1;PMS_P2;Temp;Humidity;BMP_temperature;BMP_pressure;BME280_temperature;BME280_humidity;BME280_pressure;Samples;Min_cycle;Max_cycle;Signal;HPM_P1;HPM_P2
2021/12/21 00:01:02;;;;;;;4.63;3.77;;;;;;;;;;5151371;27;20205;-65
2021/12/21 00:03:50;;;;;;;4.27;3.97;;;;;;;;;;5161342;27;20537;-65
2021/12/21 00:06:38;;;;;;;4.17;3.87;;;;;;;;;;5158069;27;20234;-65
2021/12/21 00:09:25;;;;;;;4.20;3.80;;;;;;;;;;5148811;27;20282;-64
2021/12/21 00:12:15;;;;;;;4.03;3.70;;;;;;;;;;5147895;27;20204;-65
2021/12/21 00:15:05;;;;;;;4.40;4.00;;;;;;;;;;5154307;27;20234;-64
2021/12/21 00:17:57;;;;;;;3.97;3.57;;;;;;;;;;5150940;27;20213;-64
2021/12/21 00:20:54;;;;;;;4.07;3.70;;;;;;;;;;5138709;27;20228;-64
2021/12/21 00:23:44;;;;;;;3.80;3.50;;;;;;;;;;5161629;27;20208;-64
2021/12/21 00:26:31;;;;;;;3.23;3.03;;;;;;;;;;5151614;27;20289;-64
2021/12/21 00:29:20;;;;;;;3.57;3.27;;;;;;;;;;5151495;27;20201;-64
2021/12/21 00:32:09;;;;;;;3.40;3.20;;;;;;;;;;5147319;27;20198;-64
2021/12/21 00:34:55;;;;;;;3.10;2.90;;;;;;;;;;5146510;27;20214;-65
2021/12/21 00:37:46;;;;;;;3.60;3.30;;;;;;;;;;5134942;27;20269;-65
2021/12/21 00:40:33;;;;;;;3.53;3.23;;;;;;;;;;5160517;27;20212;-64
2021/12/21 00:43:20;;;;;;;3.60;3.30;;;;;;;;;;5152410;27;20296;-64
2021/12/21 00:46:07;;;;;;;3.83;3.53;;;;;;;;;;5135509;27;20251;-64
2021/12/21 00:49:00;;;;;;;3.27;2.83;;;;;;;;;;5152574;27;20695;-64
2021/12/21 00:51:48;;;;;;;3.10;2.90;;;;;;;;;;5149741;27;20220;-66
2021/12/21 00:54:36;;;;;;;3.47;3.27;;;;;;;;;;5170792;27;20785;-65
2021/12/21 00:57:23;;;;;;;3.50;3.20;;;;;;;;;;5156701;27;20293;-65
2021/12/21 01:00:12;;;;;;;3.07;2.87;;;;;;;;;;5143917;27;20250;-64
2021/12/21 01:03:05;;;;;;;3.30;3.10;;;;;;;;;;5171067;27;20269;-65
2021/12/21 01:05:58;;;;;;;3.23;3.03;;;;;;;;;;5152912;27;20229;-64
2021/12/21 01:08:58;;;;;;;3.30;3.10;;;;;;;;;;5152093;27;21056;-65
2021/12/21 01:11:51;;;;;;;3.23;3.03;;;;;;;;;;5151457;27;20335;-65
2021/12/21 01:15:00;;;;;;;3.27;3.07;;;;;;;;;;5155992;27;20644;-65
2021/12/21 01:17:53;;;;;;;2.90;2.70;;;;;;;;;;5150774;27;20216;-64
2021/12/21 01:20:46;;;;;;;3.50;3.27;;;;;;;;;;5132374;27;20198;-64
2021/12/21 01:26:36;;;;;;;3.30;3.10;;;;;;;;;;5150561;27;20228;-64
2021/12/21 01:29:32;;;;;;;3.23;2.93;;;;;;;;;;5152220;27;20345;-64
2021/12/21 01:32:29;;;;;;;3.00;2.80;;;;;;;;;;5152408;27;20593;-64
2021/12/21 01:35:24;;;;;;;3.30;3.10;;;;;;;;;;5148995;27;20205;-65
2021/12/21 01:38:22;;;;;;;3.10;2.90;;;;;;;;;;5164657;27;20214;-64
2021/12/21 01:41:22;;;;;;;3.10;2.90;;;;;;;;;;5165200;27;20649;-65
2021/12/21 01:44:22;;;;;;;3.07;2.80;;;;;;;;;;5150849;27;20211;-65
2021/12/21 01:50:15;;;;;;;2.90;2.70;;;;;;;;;;5160770;27;20205;-65
2021/12/21 01:53:02;;;;;;;2.83;2.67;;;;;;;;;;5153747;27;20240;-64
2021/12/21 01:55:49;;;;;;;2.77;2.57;;;;;;;;;;5162399;27;20229;-64
2021/12/21 01:58:37;;;;;;;2.17;2.07;;;;;;;;;;5152074;27;20680;-65
2021/12/21 02:01:27;;;;;;;2.93;2.73;;;;;;;;;;5151537;27;20204;-70
2021/12/21 02:04:17;;;;;;;2.90;2.70;;;;;;;;;;5149267;27;20246;-70
2021/12/21 02:07:06;;;;;;;3.17;2.97;;;;;;;;;;5158884;27;20206;-71
2021/12/21 02:09:53;;;;;;;2.40;2.30;;;;;;;;;;5151103;27;20323;-70
2021/12/21 02:12:40;;;;;;;2.70;2.50;;;;;;;;;;5139620;27;20244;-71
2021/12/21 02:15:27;;;;;;;3.03;2.83;;;;;;;;;;5150398;27;20194;-70
2021/12/21 02:18:38;;;;;;;2.60;2.40;;;;;;;;;;5147855;27;20290;-71
2021/12/21 02:21:31;;;;;;;2.47;2.37;;;;;;;;;;5137717;27;20203;-71
2021/12/21 02:24:23;;;;;;;2.50;2.40;;;;;;;;;;5150873;27;20288;-71
2021/12/21 02:27:18;;;;;;;2.77;2.57;;;;;;;;;;5149869;27;20321;-70
2021/12/21 02:30:06;;;;;;;2.53;2.43;;;;;;;;;;5149604;27;20213;-72
2021/12/21 02:32:54;;;;;;;2.37;2.27;;;;;;;;;;5151717;27;20686;-71
2021/12/21 02:35:41;;;;;;;2.53;2.33;;;;;;;;;;5150049;27;20688;-71
2021/12/21 02:38:30;;;;;;;2.40;2.30;;;;;;;;;;5164171;27;20724;-71
2021/12/21 02:41:17;;;;;;;2.40;2.30;;;;;;;;;;5157755;27;20201;-71
2021/12/21 02:44:05;;;;;;;2.57;2.47;;;;;;;;;;5148700;27;20806;-71
2021/12/21 02:46:52;;;;;;;2.30;2.20;;;;;;;;;;5165269;27;20704;-71
2021/12/21 02:49:39;;;;;;;2.20;2.10;;;;;;;;;;5150355;27;20232;-71
2021/12/21 02:52:26;;;;;;;1.90;1.80;;;;;;;;;;5148290;27;20280;-71
2021/12/21 02:55:15;;;;;;;2.30;2.10;;;;;;;;;;5130928;27;20211;-71
2021/12/21 02:58:02;;;;;;;2.33;2.20;;;;;;;;;;5158509;27;20692;-71
2021/12/21 03:00:52;;;;;;;2.07;1.97;;;;;;;;;;5143016;27;20236;-71
2021/12/21 03:03:40;;;;;;;1.90;1.80;;;;;;;;;;5168548;27;20611;-71
2021/12/21 03:06:59;;;;;;;2.20;2.10;;;;;;;;;;5156116;27;20270;-71
2021/12/21 03:09:54;;;;;;;2.00;1.90;;;;;;;;;;5149516;27;20577;-70
2021/12/21 03:15:46;;;;;;;2.00;1.90;;;;;;;;;;5159883;27;20215;-71
2021/12/21 03:18:33;;;;;;;1.87;1.77;;;;;;;;;;5151959;27;20206;-71
2021/12/21 03:21:20;;;;;;;2.00;1.90;;;;;;;;;;5149126;27;20284;-71
2021/12/21 03:24:08;;;;;;;1.93;1.83;;;;;;;;;;5151683;27;20230;-71
2021/12/21 03:26:55;;;;;;;1.90;1.80;;;;;;;;;;5147147;27;20232;-71
2021/12/21 03:29:44;;;;;;;2.13;2.03;;;;;;;;;;5148027;27;20559;-71
2021/12/21 03:32:30;;;;;;;1.83;1.73;;;;;;;;;;5150683;27;20299;-71
2021/12/21 03:35:17;;;;;;;1.90;1.80;;;;;;;;;;5148120;27;20280;-71
2021/12/21 03:38:04;;;;;;;2.00;1.90;;;;;;;;;;5149089;27;20284;-71
2021/12/21 03:40:53;;;;;;;2.00;1.90;;;;;;;;;;5157925;27;20632;-71
2021/12/21 03:43:40;;;;;;;2.10;2.00;;;;;;;;;;5154466;27;20589;-71
2021/12/21 03:46:31;;;;;;;2.00;1.90;;;;;;;;;;5160724;27;20697;-70
2021/12/21 03:52:28;;;;;;;2.23;1.80;;;;;;;;;;5153684;27;20207;-71
2021/12/21 03:55:16;;;;;;;1.60;1.50;;;;;;;;;;5153451;27;20235;-71
2021/12/21 03:58:04;;;;;;;2.13;1.80;;;;;;;;;;5152919;27;20202;-71
2021/12/21 04:00:51;;;;;;;2.00;1.90;;;;;;;;;;5154588;27;20595;-71
2021/12/21 04:03:39;;;;;;;1.80;1.70;;;;;;;;;;5145212;27;20263;-71
2021/12/21 04:06:26;;;;;;;1.90;1.80;;;;;;;;;;5152284;27;20265;-71
2021/12/21 04:09:13;;;;;;;1.50;1.50;;;;;;;;;;5152050;27;20224;-71
2021/12/21 04:12:00;;;;;;;1.57;1.50;;;;;;;;;;5152555;27;20205;-71
2021/12/21 04:14:48;;;;;;;1.53;1.43;;;;;;;;;;5153255;27;20198;-71
2021/12/21 04:17:35;;;;;;;1.60;1.50;;;;;;;;;;5151974;27;20363;-71
2021/12/21 04:20:23;;;;;;;1.50;1.40;;;;;;;;;;5168277;27;20199;-71
2021/12/21 04:23:10;;;;;;;1.80;1.70;;;;;;;;;;5154330;27;20213;-71
2021/12/21 04:25:58;;;;;;;1.73;1.63;;;;;;;;;;5166173;27;20688;-71
2021/12/21 04:28:45;;;;;;;1.60;1.60;;;;;;;;;;5164132;27;20206;-71
2021/12/21 04:31:32;;;;;;;1.43;1.40;;;;;;;;;;5154486;27;20265;-71
2021/12/21 04:34:19;;;;;;;1.77;1.67;;;;;;;;;;5136236;27;20214;-71
2021/12/21 04:37:08;;;;;;;1.50;1.50;;;;;;;;;;5158247;27;20224;-71
2021/12/21 04:40:01;;;;;;;1.43;1.37;;;;;;;;;;5151997;27;20206;-71
2021/12/21 04:42:48;;;;;;;1.87;1.77;;;;;;;;;;5144015;27;20212;-70
2021/12/21 04:45:35;;;;;;;1.80;1.70;;;;;;;;;;5160879;27;20351;-71
2021/12/21 04:48:22;;;;;;;1.83;1.73;;;;;;;;;;5155875;27;20683;-71
2021/12/21 04:51:09;;;;;;;1.90;1.80;;;;;;;;;;5161279;27;20675;-71
2021/12/21 04:53:57;;;;;;;2.00;1.90;;;;;;;;;;5160261;27;20320;-71
2021/12/21 04:56:44;;;;;;;1.50;1.40;;;;;;;;;;5143323;27;20241;-71
2021/12/21 04:59:31;;;;;;;1.73;1.63;;;;;;;;;;5154586;27;20213;-71
2021/12/21 05:02:18;;;;;;;1.50;1.50;;;;;;;;;;5152522;27;20208;-71
2021/12/21 05:05:06;;;;;;;1.70;1.60;;;;;;;;;;5149135;27;20323;-71
2021/12/21 05:08:05;;;;;;;1.67;1.57;;;;;;;;;;5162723;27;20213;-71
2021/12/21 05:10:58;;;;;;;1.70;1.60;;;;;;;;;;5151265;27;20217;-71
2021/12/21 05:13:45;;;;;;;1.47;1.37;;;;;;;;;;5147829;27;20213;-71
2021/12/21 05:16:32;;;;;;;1.90;1.80;;;;;;;;;;5152221;27;20213;-71
2021/12/21 05:19:19;;;;;;;1.90;1.80;;;;;;;;;;5152624;27;20239;-71
2021/12/21 05:22:07;;;;;;;1.27;1.27;;;;;;;;;;5162651;27;20293;-71
2021/12/21 05:24:54;;;;;;;1.67;1.60;;;;;;;;;;5151912;27;20213;-71
2021/12/21 05:27:42;;;;;;;1.20;1.20;;;;;;;;;;5151679;27;20250;-71
2021/12/21 05:30:29;;;;;;;1.50;1.40;;;;;;;;;;5152476;27;20748;-71
2021/12/21 05:33:16;;;;;;;1.40;1.40;;;;;;;;;;5150298;27;20949;-71
2021/12/21 05:36:03;;;;;;;1.50;1.40;;;;;;;;;;5150003;27;20660;-70
2021/12/21 05:38:56;;;;;;;1.43;1.40;;;;;;;;;;5152571;27;20205;-70
2021/12/21 05:41:49;;;;;;;1.50;1.50;;;;;;;;;;5152362;27;20202;-71
2021/12/21 05:44:38;;;;;;;1.00;1.00;;;;;;;;;;5150409;27;20213;-70
2021/12/21 05:47:25;;;;;;;1.97;1.87;;;;;;;;;;5134358;27;20689;-71
2021/12/21 05:50:16;;;;;;;2.63;2.43;;;;;;;;;;5159967;27;20246;-71
2021/12/21 05:53:03;;;;;;;3.20;2.90;;;;;;;;;;5153603;27;20607;-71
2021/12/21 05:55:50;;;;;;;4.13;3.67;;;;;;;;;;5151802;27;20281;-70
2021/12/21 05:58:37;;;;;;;3.87;3.47;;;;;;;;;;5157795;27;20237;-71
2021/12/21 06:01:25;;;;;;;4.00;3.47;;;;;;;;;;5144320;27;20205;-71
2021/12/21 06:04:12;;;;;;;3.73;3.43;;;;;;;;;;5151892;27;20247;-70
2021/12/21 06:06:59;;;;;;;3.73;3.27;;;;;;;;;;5149832;27;20345;-71
2021/12/21 06:09:48;;;;;;;3.80;3.40;;;;;;;;;;5146607;27;20196;-69
2021/12/21 06:12:53;;;;;;;3.40;3.10;;;;;;;;;;5150604;27;20593;-70
2021/12/21 06:15:50;;;;;;;3.53;3.23;;;;;;;;;;5149521;27;20212;-71
2021/12/21 06:27:52;;;;;;;2.97;2.70;;;;;;;;;;5145042;27;20223;-72
2021/12/21 06:30:41;;;;;;;3.33;3.07;;;;;;;;;;5164606;27;20393;-70
2021/12/21 06:33:28;;;;;;;3.10;2.90;;;;;;;;;;5159582;27;20283;-70
2021/12/21 06:36:18;;;;;;;3.10;2.80;;;;;;;;;;5149386;27;20205;-70
2021/12/21 06:39:06;;;;;;;3.30;3.00;;;;;;;;;;5158999;27;20607;-71
2021/12/21 06:41:53;;;;;;;3.20;3.00;;;;;;;;;;5151018;27;20720;-71
2021/12/21 06:44:43;;;;;;;3.00;2.80;;;;;;;;;;5147362;27;20297;-70
2021/12/21 06:53:41;;;;;;;3.17;2.97;;;;;;;;;;5150133;27;20212;-71
2021/12/21 06:56:29;;;;;;;2.90;2.70;;;;;;;;;;5154786;27;20205;-71
2021/12/21 06:59:16;;;;;;;2.60;2.47;;;;;;;;;;5164033;27;20290;-71
2021/12/21 07:02:03;;;;;;;2.57;2.37;;;;;;;;;;5151075;27;20243;-65
2021/12/21 07:04:51;;;;;;;2.70;2.50;;;;;;;;;;5133841;27;20643;-64
2021/12/21 07:07:38;;;;;;;2.80;2.60;;;;;;;;;;5161046;27;20227;-64
2021/12/21 07:10:29;;;;;;;2.50;2.30;;;;;;;;;;5153299;27;20321;-65
2021/12/21 07:19:34;;;;;;;2.23;2.13;;;;;;;;;;5148216;27;20200;-65
2021/12/21 07:22:21;;;;;;;2.60;2.40;;;;;;;;;;5163583;27;20280;-64
2021/12/21 07:25:08;;;;;;;1.90;1.80;;;;;;;;;;5160939;27;20738;-64
2021/12/21 07:27:57;;;;;;;2.20;2.10;;;;;;;;;;5153261;27;20265;-66
2021/12/21 07:30:44;;;;;;;1.93;1.83;;;;;;;;;;5136133;27;20297;-64
2021/12/21 07:33:31;;;;;;;2.47;2.27;;;;;;;;;;5159379;27;20241;-64
2021/12/21 07:36:17;;;;;;;2.60;2.40;;;;;;;;;;5151886;27;20285;-65
2021/12/21 07:39:07;;;;;;;2.33;2.23;;;;;;;;;;5147747;27;20208;-65
2021/12/21 07:41:54;;;;;;;2.93;2.73;;;;;;;;;;5156571;27;20213;-64
2021/12/21 07:44:43;;;;;;;2.60;2.40;;;;;;;;;;5154597;27;20671;-65
2021/12/21 07:47:30;;;;;;;2.73;2.53;;;;;;;;;;5167412;27;20260;-65
2021/12/21 07:50:17;;;;;;;2.90;2.70;;;;;;;;;;5155149;27;20277;-65
2021/12/21 07:53:05;;;;;;;2.93;2.80;;;;;;;;;;5155491;27;20207;-65
2021/12/21 07:55:52;;;;;;;2.80;2.70;;;;;;;;;;5169334;27;20583;-64
2021/12/21 07:58:39;;;;;;;2.80;2.60;;;;;;;;;;5153057;27;20287;-64
2021/12/21 08:01:27;;;;;;;3.40;3.10;;;;;;;;;;5158484;27;20193;-65
2021/12/21 08:04:15;;;;;;;3.37;3.17;;;;;;;;;;5147585;27;20245;-66
2021/12/21 08:07:08;;;;;;;3.10;2.90;;;;;;;;;;5149700;27;20223;-65
2021/12/21 08:09:56;;;;;;;3.23;3.03;;;;;;;;;;5142808;27;20213;-64
2021/12/21 08:12:43;;;;;;;3.87;3.60;;;;;;;;;;5146793;27;20212;-65
2021/12/21 08:15:30;;;;;;;3.73;3.50;;;;;;;;;;5147917;27;20208;-65
2021/12/21 08:18:19;;;;;;;3.90;3.60;;;;;;;;;;5160531;27;20208;-64
2021/12/21 08:21:06;;;;;;;3.80;3.50;;;;;;;;;;5161097;27;20268;-65
2021/12/21 08:23:53;;;;;;;3.60;3.40;;;;;;;;;;5148169;27;20302;-64
2021/12/21 08:26:40;;;;;;;3.70;3.50;;;;;;;;;;5161149;27;20231;-64
2021/12/21 08:29:28;;;;;;;3.50;3.30;;;;;;;;;;5160271;27;20208;-65
2021/12/21 08:32:15;;;;;;;3.90;3.60;;;;;;;;;;5154437;27;20247;-64
2021/12/21 08:35:05;;;;;;;3.80;3.60;;;;;;;;;;5145810;27;20207;-65
2021/12/21 08:37:59;;;;;;;3.60;3.30;;;;;;;;;;5152786;27;20203;-64
2021/12/21 08:40:49;;;;;;;3.80;3.60;;;;;;;;;;5152049;27;20208;-64
2021/12/21 08:43:37;;;;;;;4.40;4.10;;;;;;;;;;5152405;27;20216;-64
2021/12/21 08:46:24;;;;;;;4.70;4.30;;;;;;;;;;5152019;27;20276;-64
2021/12/21 08:49:11;;;;;;;4.70;4.30;;;;;;;;;;5152581;27;20243;-64
2021/12/21 08:51:59;;;;;;;5.43;4.93;;;;;;;;;;5157855;27;20678;-65
2021/12/21 08:54:46;;;;;;;6.30;5.70;;;;;;;;;;5158203;27;20314;-64
2021/12/21 08:57:36;;;;;;;6.37;5.23;;;;;;;;;;5161862;27;20204;-64
2021/12/21 09:00:23;;;;;;;6.60;5.63;;;;;;;;;;5161313;27;20196;-67
2021/12/21 09:03:11;;;;;;;5.90;5.30;;;;;;;;;;5154649;27;20256;-64
2021/12/21 09:05:58;;;;;;;6.23;5.60;;;;;;;;;;5159606;27;20235;-65
2021/12/21 09:08:46;;;;;;;6.10;5.50;;;;;;;;;;5163410;27;20216;-64
2021/12/21 09:11:35;;;;;;;6.47;5.77;;;;;;;;;;5148911;27;20212;-64
2021/12/21 09:14:22;;;;;;;6.40;5.80;;;;;;;;;;5140817;27;20201;-64
2021/12/21 09:17:09;;;;;;;6.20;5.60;;;;;;;;;;5163336;27;20200;-65
2021/12/21 09:19:56;;;;;;;6.20;5.60;;;;;;;;;;5147946;27;20215;-65
2021/12/21 09:22:43;;;;;;;5.80;5.20;;;;;;;;;;5137755;27;20303;-67
2021/12/21 09:25:32;;;;;;;6.50;5.90;;;;;;;;;;5153813;27;20204;-64
2021/12/21 09:28:19;;;;;;;6.77;5.70;;;;;;;;;;5149924;27;20220;-64
2021/12/21 09:31:06;;;;;;;6.27;5.67;;;;;;;;;;5136480;27;20731;-64
2021/12/21 09:33:53;;;;;;;6.17;5.57;;;;;;;;;;5142164;27;20237;-64
2021/12/21 09:36:40;;;;;;;6.00;5.20;;;;;;;;;;5145782;27;20303;-66
2021/12/21 09:39:27;;;;;;;6.80;5.50;;;;;;;;;;5146483;27;20244;-64
2021/12/21 09:42:17;;;;;;;5.40;4.80;;;;;;;;;;5150682;27;20236;-64
2021/12/21 09:45:06;;;;;;;6.70;5.60;;;;;;;;;;5149745;27;20226;-64
2021/12/21 09:47:53;;;;;;;6.33;5.57;;;;;;;;;;5151394;27;20217;-64
2021/12/21 09:50:41;;;;;;;6.37;5.70;;;;;;;;;;5156859;27;20211;-64
2021/12/21 09:53:32;;;;;;;6.70;5.97;;;;;;;;;;5158483;27;20239;-66
2021/12/21 09:56:19;;;;;;;6.47;5.60;;;;;;;;;;5157605;27;20206;-65
2021/12/21 09:59:07;;;;;;;5.70;5.20;;;;;;;;;;5151306;27;20203;-64
2021/12/21 10:01:56;;;;;;;6.53;5.80;;;;;;;;;;5150709;27;20253;-64
2021/12/21 10:04:48;;;;;;;7.00;6.13;;;;;;;;;;5153772;27;20233;-64
2021/12/21 10:07:36;;;;;;;7.07;5.90;;;;;;;;;;5152140;27;20233;-66
2021/12/21 10:10:23;;;;;;;6.70;6.10;;;;;;;;;;5157418;27;20200;-64
2021/12/21 10:13:12;;;;;;;6.50;5.90;;;;;;;;;;5150381;27;20196;-64
2021/12/21 10:16:03;;;;;;;6.40;5.30;;;;;;;;;;5148368;27;20216;-64
2021/12/21 10:18:50;;;;;;;5.73;5.17;;;;;;;;;;5150502;27;20189;-64
2021/12/21 10:21:45;;;;;;;6.23;5.63;;;;;;;;;;5151829;27;20338;-64
2021/12/21 10:24:32;;;;;;;5.93;5.37;;;;;;;;;;5146013;27;20582;-64
2021/12/21 10:27:20;;;;;;;6.17;5.30;;;;;;;;;;5144757;27;20751;-66
2021/12/21 10:30:09;;;;;;;5.93;5.33;;;;;;;;;;5156676;27;20229;-65
2021/12/21 10:33:00;;;;;;;5.60;5.10;;;;;;;;;;5148489;27;20198;-64
2021/12/21 10:35:47;;;;;;;5.60;5.10;;;;;;;;;;5137235;27;20211;-64
2021/12/21 10:38:36;;;;;;;5.07;4.60;;;;;;;;;;5138828;27;20304;-65
2021/12/21 10:41:29;;;;;;;5.40;4.90;;;;;;;;;;5144512;27;20521;-66
2021/12/21 10:44:18;;;;;;;4.90;4.40;;;;;;;;;;5149574;27;20208;-65
2021/12/21 10:47:05;;;;;;;5.13;4.73;;;;;;;;;;5137952;27;20575;-64
2021/12/21 10:49:54;;;;;;;5.50;4.90;;;;;;;;;;5145078;27;20205;-65
2021/12/21 10:52:42;;;;;;;4.97;4.57;;;;;;;;;;5133506;27;20205;-64
2021/12/21 10:55:32;;;;;;;4.50;4.17;;;;;;;;;;5156979;27;20624;-67
2021/12/21 10:58:19;;;;;;;4.80;4.40;;;;;;;;;;5153257;27;20213;-65
2021/12/21 11:01:10;;;;;;;4.43;4.07;;;;;;;;;;5136519;27;20266;-65
2021/12/21 11:03:57;;;;;;;4.23;3.90;;;;;;;;;;5139936;27;20328;-65
2021/12/21 11:06:49;;;;;;;4.10;3.80;;;;;;;;;;5139610;27;20292;-65
2021/12/21 11:09:36;;;;;;;4.10;3.80;;;;;;;;;;5132794;27;20292;-65
2021/12/21 11:12:24;;;;;;;5.20;4.80;;;;;;;;;;5143921;27;20221;-64
2021/12/21 11:15:13;;;;;;;5.30;4.97;;;;;;;;;;5147776;27;20231;-66
2021/12/21 11:18:03;;;;;;;5.30;4.90;;;;;;;;;;5131795;27;20233;-65
2021/12/21 11:20:53;;;;;;;6.10;5.17;;;;;;;;;;5154026;27;20209;-64
2021/12/21 11:23:42;;;;;;;5.30;4.90;;;;;;;;;;5159229;27;20206;-65
2021/12/21 11:26:31;;;;;;;5.33;4.93;;;;;;;;;;5166993;27;20200;-64
2021/12/21 11:29:19;;;;;;;6.27;5.40;;;;;;;;;;5151612;27;20248;-64
2021/12/21 11:32:08;;;;;;;5.40;5.00;;;;;;;;;;5158568;27;20334;-64
2021/12/21 11:37:20;;;;;;;4.90;4.60;;;;;;;;;;5148436;27;20250;-64
2021/12/21 11:38:14;;;;;;;4.90;4.50;;;;;;;;;;5150132;27;20236;-64
2021/12/21 11:41:05;;;;;;;5.33;4.83;;;;;;;;;;5148460;27;20216;-66
2021/12/21 11:43:57;;;;;;;4.70;4.40;;;;;;;;;;5167526;27;20211;-64
2021/12/21 11:46:53;;;;;;;4.93;4.43;;;;;;;;;;5147503;27;20210;-64
2021/12/21 11:49:46;;;;;;;4.40;4.10;;;;;;;;;;5149181;27;20653;-64
2021/12/21 11:52:43;;;;;;;4.00;3.70;;;;;;;;;;5148100;27;20611;-64
2021/12/21 11:55:31;;;;;;;4.23;3.93;;;;;;;;;;5150620;27;20198;-64
2021/12/21 11:58:22;;;;;;;4.43;3.93;;;;;;;;;;5147581;27;20204;-64
2021/12/21 12:01:16;;;;;;;4.17;3.87;;;;;;;;;;5160805;27;20296;-64
2021/12/21 12:04:06;;;;;;;3.67;3.47;;;;;;;;;;5147401;27;20582;-64
2021/12/21 12:06:55;;;;;;;4.00;3.70;;;;;;;;;;5149258;27;20202;-64
2021/12/21 12:09:42;;;;;;;3.63;3.43;;;;;;;;;;5158883;27;20662;-65
2021/12/21 12:12:29;;;;;;;3.40;3.20;;;;;;;;;;5144725;27;20205;-64
2021/12/21 12:15:17;;;;;;;3.50;3.30;;;;;;;;;;5142524;27;20235;-64
2021/12/21 12:18:05;;;;;;;3.27;3.07;;;;;;;;;;5170969;27;20215;-64
2021/12/21 12:20:52;;;;;;;2.90;2.70;;;;;;;;;;5157889;27;20208;-64
2021/12/21 12:23:52;;;;;;;3.17;2.93;;;;;;;;;;5164525;27;20201;-62
2021/12/21 12:26:40;;;;;;;3.40;3.20;;;;;;;;;;5159485;27;20256;-65
2021/12/21 12:29:28;;;;;;;3.40;3.20;;;;;;;;;;5158754;27;20611;-65
2021/12/21 12:32:18;;;;;;;3.27;3.07;;;;;;;;;;5164876;27;20205;-66
2021/12/21 12:35:09;;;;;;;3.70;3.40;;;;;;;;;;5168224;27;20259;-64
2021/12/21 12:37:58;;;;;;;4.77;4.10;;;;;;;;;;5157951;27;20693;-65
2021/12/21 12:40:47;;;;;;;5.20;4.70;;;;;;;;;;5164352;27;20200;-64
2021/12/21 12:43:42;;;;;;;5.13;4.50;;;;;;;;;;5165411;27;20280;-64
2021/12/21 12:46:30;;;;;;;5.67;5.07;;;;;;;;;;5152392;27;20217;-65
2021/12/21 12:49:25;;;;;;;5.70;5.10;;;;;;;;;;5163570;27;20249;-66
2021/12/21 12:52:16;;;;;;;5.73;5.10;;;;;;;;;;5168812;27;20231;-65
2021/12/21 12:55:06;;;;;;;6.10;5.50;;;;;;;;;;5152173;27;20254;-65
2021/12/21 12:57:55;;;;;;;5.40;4.90;;;;;;;;;;5155930;27;20216;-64
2021/12/21 13:00:44;;;;;;;5.67;4.60;;;;;;;;;;5157271;27;20633;-65
2021/12/21 13:03:34;;;;;;;5.43;4.93;;;;;;;;;;5148748;27;20889;-64
2021/12/21 13:06:24;;;;;;;5.57;4.90;;;;;;;;;;5162326;27;20208;-65
2021/12/21 13:09:17;;;;;;;5.50;4.90;;;;;;;;;;5164898;27;20252;-64
2021/12/21 13:12:10;;;;;;;5.33;4.80;;;;;;;;;;5149090;27;20209;-64
2021/12/21 13:14:57;;;;;;;5.30;4.80;;;;;;;;;;5164768;27;20210;-64
2021/12/21 13:17:45;;;;;;;5.70;5.20;;;;;;;;;;5151055;27;20325;-64
2021/12/21 13:20:33;;;;;;;5.40;4.90;;;;;;;;;;5151413;27;20261;-65
2021/12/21 13:23:24;;;;;;;5.37;4.90;;;;;;;;;;5166364;27;20209;-65
2021/12/21 13:26:11;;;;;;;5.37;4.83;;;;;;;;;;5162938;27;20198;-64
2021/12/21 13:28:59;;;;;;;5.17;4.77;;;;;;;;;;5148034;27;20235;-64
2021/12/21 13:31:48;;;;;;;5.10;4.60;;;;;;;;;;5160936;27;20207;-64
2021/12/21 13:34:36;;;;;;;5.10;4.70;;;;;;;;;;5161458;27;20309;-64
2021/12/21 13:37:24;;;;;;;4.67;4.27;;;;;;;;;;5154676;27;20330;-64
2021/12/21 13:40:16;;;;;;;5.10;4.60;;;;;;;;;;5161108;27;20223;-64
2021/12/21 13:43:11;;;;;;;4.73;4.33;;;;;;;;;;5161200;27;20200;-64
2021/12/21 13:46:00;;;;;;;5.17;4.77;;;;;;;;;;5157280;27;20260;-64
2021/12/21 13:48:52;;;;;;;4.97;4.50;;;;;;;;;;5168160;27;20229;-65
2021/12/21 13:51:48;;;;;;;4.80;4.30;;;;;;;;;;5159349;27;20679;-64
2021/12/21 13:54:35;;;;;;;3.90;3.70;;;;;;;;;;5151230;27;20543;-64
2021/12/21 13:57:26;;;;;;;4.67;4.27;;;;;;;;;;5166803;27;20197;-64
2021/12/21 14:00:14;;;;;;;4.17;3.87;;;;;;;;;;5151113;27;20225;-64
2021/12/21 14:03:06;;;;;;;4.50;4.10;;;;;;;;;;5142904;27;20697;-64
2021/12/21 14:05:59;;;;;;;4.53;4.13;;;;;;;;;;5168914;27;20224;-65
2021/12/21 14:08:46;;;;;;;4.17;3.87;;;;;;;;;;5153950;27;20225;-65
2021/12/21 14:11:36;;;;;;;4.50;4.10;;;;;;;;;;5149017;27;20237;-64
2021/12/21 14:14:24;;;;;;;4.17;3.87;;;;;;;;;;5152143;27;20241;-65
2021/12/21 14:17:12;;;;;;;4.10;3.70;;;;;;;;;;5148941;27;20204;-64
2021/12/21 14:20:02;;;;;;;4.23;3.90;;;;;;;;;;5151330;27;20573;-64
2021/12/21 14:22:50;;;;;;;4.43;4.03;;;;;;;;;;5162694;27;20208;-64
2021/12/21 14:25:37;;;;;;;4.30;3.90;;;;;;;;;;5148550;27;20660;-65
2021/12/21 14:28:24;;;;;;;4.07;3.77;;;;;;;;;;5149398;27;20312;-64
2021/12/21 14:31:14;;;;;;;4.03;3.73;;;;;;;;;;5150935;27;20280;-65
2021/12/21 14:34:01;;;;;;;3.60;3.30;;;;;;;;;;5152573;27;20208;-65
2021/12/21 14:36:49;;;;;;;4.40;4.00;;;;;;;;;;5160944;27;20204;-65
2021/12/21 14:39:37;;;;;;;4.10;3.80;;;;;;;;;;5151170;27;20289;-64
2021/12/21 14:42:25;;;;;;;3.90;3.50;;;;;;;;;;5149811;27;20252;-64
2021/12/21 14:45:12;;;;;;;4.20;3.90;;;;;;;;;;5155428;27;20213;-64
2021/12/21 14:48:01;;;;;;;4.00;3.70;;;;;;;;;;5162128;27;20208;-64
2021/12/21 14:50:53;;;;;;;4.30;3.90;;;;;;;;;;5153560;27;20361;-64
2021/12/21 14:53:49;;;;;;;4.17;3.77;;;;;;;;;;5135541;27;20244;-64
2021/12/21 14:56:38;;;;;;;4.37;3.97;;;;;;;;;;5151654;27;20299;-63
2021/12/21 14:59:34;;;;;;;4.00;3.70;;;;;;;;;;5148091;27;20649;-64
2021/12/21 15:02:49;;;;;;;4.13;3.80;;;;;;;;;;5135390;27;20216;-65
2021/12/21 15:05:35;;;;;;;4.30;3.90;;;;;;;;;;5164178;27;20213;-65
2021/12/21 15:08:23;;;;;;;4.90;4.50;;;;;;;;;;5148476;27;20209;-64
2021/12/21 15:11:11;;;;;;;4.17;3.80;;;;;;;;;;5152433;27;20257;-65
2021/12/21 15:13:58;;;;;;;3.73;3.43;;;;;;;;;;5151511;27;20209;-64
2021/12/21 15:16:45;;;;;;;4.20;3.80;;;;;;;;;;5150597;27;20286;-64
2021/12/21 15:19:32;;;;;;;4.10;3.70;;;;;;;;;;5154165;27;20208;-64
2021/12/21 15:22:20;;;;;;;4.63;4.00;;;;;;;;;;5155773;27;20208;-64
2021/12/21 15:25:10;;;;;;;5.23;4.47;;;;;;;;;;5150847;27;20506;-64
2021/12/21 15:27:58;;;;;;;4.37;3.97;;;;;;;;;;5160456;27;20300;-65
2021/12/21 15:30:44;;;;;;;3.93;3.63;;;;;;;;;;5151715;27;20204;-65
2021/12/21 15:33:31;;;;;;;4.50;4.10;;;;;;;;;;5148529;27;20260;-64
2021/12/21 15:36:18;;;;;;;4.60;4.20;;;;;;;;;;5161205;27;20212;-66
2021/12/21 15:39:08;;;;;;;4.10;3.40;;;;;;;;;;5156557;27;20294;-64
2021/12/21 15:41:56;;;;;;;4.47;3.60;;;;;;;;;;5141958;27;20691;-64
2021/12/21 15:44:45;;;;;;;4.20;3.80;;;;;;;;;;5151993;27;20231;-65
2021/12/21 15:47:32;;;;;;;4.00;3.70;;;;;;;;;;5150976;27;20299;-64
2021/12/21 15:50:19;;;;;;;4.07;3.67;;;;;;;;;;5142406;27;20252;-64
2021/12/21 15:53:06;;;;;;;4.90;3.63;;;;;;;;;;5167257;27;20193;-64
2021/12/21 15:55:55;;;;;;;4.70;3.90;;;;;;;;;;5146664;27;20205;-65
2021/12/21 15:58:42;;;;;;;5.23;3.77;;;;;;;;;;5148580;27;20212;-64
2021/12/21 16:01:30;;;;;;;5.07;4.17;;;;;;;;;;5157728;27;20200;-65
2021/12/21 16:04:19;;;;;;;4.27;3.87;;;;;;;;;;5147597;27;20307;-65
2021/12/21 16:07:06;;;;;;;4.80;4.30;;;;;;;;;;5151849;27;20213;-64
2021/12/21 16:09:53;;;;;;;4.27;3.73;;;;;;;;;;5150291;27;20256;-66
2021/12/21 16:12:41;;;;;;;6.50;4.13;;;;;;;;;;5147595;27;20232;-65
2021/12/21 16:15:29;;;;;;;4.20;3.80;;;;;;;;;;5156847;27;20750;-65
2021/12/21 16:18:16;;;;;;;4.77;4.10;;;;;;;;;;5158849;27;20673;-64
2021/12/21 16:21:03;;;;;;;6.13;4.20;;;;;;;;;;5144425;27;20669;-65
2021/12/21 16:23:50;;;;;;;4.70;4.10;;;;;;;;;;5158410;27;20205;-64
2021/12/21 16:26:37;;;;;;;6.90;4.30;;;;;;;;;;5147015;27;20284;-65
2021/12/21 16:29:26;;;;;;;4.47;3.70;;;;;;;;;;5148723;27;20304;-65
2021/12/21 16:32:13;;;;;;;4.27;3.90;;;;;;;;;;5155740;27;20219;-65
2021/12/21 16:34:59;;;;;;;4.50;4.10;;;;;;;;;;5158202;27;20206;-65
2021/12/21 16:37:46;;;;;;;4.67;4.13;;;;;;;;;;5155059;27;20291;-65
2021/12/21 16:40:34;;;;;;;4.83;3.90;;;;;;;;;;5151493;27;20201;-64
2021/12/21 16:43:29;;;;;;;4.30;3.90;;;;;;;;;;5151461;27;20192;-64
2021/12/21 16:46:17;;;;;;;4.20;3.90;;;;;;;;;;5139450;27;20210;-64
2021/12/21 16:49:04;;;;;;;4.30;3.90;;;;;;;;;;5168582;27;20304;-64
2021/12/21 16:51:51;;;;;;;5.13;3.40;;;;;;;;;;5152605;27;20250;-64
2021/12/21 16:54:38;;;;;;;3.67;3.37;;;;;;;;;;5163449;27;20244;-67
2021/12/21 16:57:25;;;;;;;3.90;3.60;;;;;;;;;;5163416;27;20244;-64
2021/12/21 17:00:13;;;;;;;4.30;3.53;;;;;;;;;;5154270;27;20217;-64
2021/12/21 17:03:01;;;;;;;5.07;3.27;;;;;;;;;;5153064;27;20231;-64
2021/12/21 17:05:49;;;;;;;3.50;3.20;;;;;;;;;;5155772;27;20235;-64
2021/12/21 17:08:41;;;;;;;3.90;3.17;;;;;;;;;;5156095;27;20675;-64
2021/12/21 17:11:28;;;;;;;3.50;3.20;;;;;;;;;;5152258;27;20204;-64
2021/12/21 17:14:15;;;;;;;3.13;2.93;;;;;;;;;;5151269;27;20228;-64
2021/12/21 17:17:03;;;;;;;3.17;2.90;;;;;;;;;;5149096;27;20216;-64
2021/12/21 17:19:51;;;;;;;3.30;3.00;;;;;;;;;;5144713;27;20233;-64
2021/12/21 17:22:38;;;;;;;3.40;3.10;;;;;;;;;;5159647;27;20210;-64
2021/12/21 17:25:25;;;;;;;3.37;3.07;;;;;;;;;;5153599;27;20284;-64
2021/12/21 17:28:13;;;;;;;3.10;2.90;;;;;;;;;;5136714;27;20246;-64